Time;durP1;ratioP1;P1;durP2;ratioP2;P2;SDS_P1;SDS_P2;PMS_P1;PMS_P2;Temp;Humidity;BMP_temperature;BMP_pressure;BME280_temperature;BME280_humidity;BME280_pressure;Samples;Min_cycle;Max_cycle;Signal;HPM_P1;HPM_P2
2022/11/14 00:01:20;;;;;;;13.67;7.43;;;;;;;;;;5005200;28;20763;-73
2022/11/14 00:03:48;;;;;;;10.67;6.90;;;;;;;;;;5004104;28;20819;-73
2022/11/14 00:06:13;;;;;;;11.65;7.13;;;;;;;;;;5004498;28;20277;-72
2022/11/14 00:08:38;;;;;;;13.70;6.53;;;;;;;;;;5003482;28;20053;-73
2022/11/14 00:11:04;;;;;;;10.47;6.57;;;;;;;;;;5003159;28;20369;-68
2022/11/14 00:13:29;;;;;;;13.35;7.30;;;;;;;;;;5003437;28;20285;-66
2022/11/14 00:15:54;;;;;;;14.55;8.52;;;;;;;;;;5004887;28;20026;-68
2022/11/14 00:18:20;;;;;;;12.23;7.95;;;;;;;;;;5006992;28;20030;-69
2022/11/14 00:20:49;;;;;;;11.50;6.93;;;;;;;;;;5005267;28;20056;-70
2022/11/14 00:23:14;;;;;;;12.38;7.28;;;;;;;;;;5003896;28;20141;-68
2022/11/14 00:25:39;;;;;;;11.48;6.68;;;;;;;;;;5007371;28;20121;-67
2022/11/14 00:28:05;;;;;;;14.18;7.78;;;;;;;;;;5003193;28;20512;-67
2022/11/14 00:30:30;;;;;;;12.00;6.80;;;;;;;;;;5004432;28;20030;-74
2022/11/14 00:32:55;;;;;;;10.53;6.43;;;;;;;;;;5006256;28;20304;-71
2022/11/14 00:35:20;;;;;;;14.20;7.23;;;;;;;;;;5006296;28;20363;-73
2022/11/14 00:37:45;;;;;;;13.23;7.93;;;;;;;;;;4998712;28;20301;-72
2022/11/14 00:40:13;;;;;;;13.05;7.40;;;;;;;;;;5001098;28;20558;-73
2022/11/14 00:42:38;;;;;;;12.15;6.55;;;;;;;;;;5006704;28;20103;-72
2022/11/14 00:45:04;;;;;;;13.93;8.55;;;;;;;;;;5009638;28;20038;-73
2022/11/14 00:47:29;;;;;;;12.48;7.20;;;;;;;;;;5008878;28;20559;-76
2022/11/14 00:49:54;;;;;;;14.87;7.50;;;;;;;;;;5010725;28;20026;-73
2022/11/14 00:52:19;;;;;;;9.73;6.17;;;;;;;;;;5010622;28;20284;-71
2022/11/14 00:54:45;;;;;;;12.10;7.37;;;;;;;;;;5006044;28;20318;-72
2022/11/14 00:57:10;;;;;;;10.70;6.87;;;;;;;;;;5010997;28;20273;-73
2022/11/14 00:59:35;;;;;;;10.50;6.83;;;;;;;;;;5004224;28;20375;-73
2022/11/14 01:02:00;;;;;;;12.27;6.30;;;;;;;;;;5011167;28;20311;-73
2022/11/14 01:04:26;;;;;;;10.18;6.40;;;;;;;;;;5007835;28;20456;-73
2022/11/14 01:06:52;;;;;;;11.18;6.57;;;;;;;;;;5009987;28;20045;-72
2022/11/14 01:09:17;;;;;;;11.73;6.23;;;;;;;;;;5006540;28;20037;-71
2022/11/14 01:11:42;;;;;;;15.20;7.37;;;;;;;;;;5009812;28;20295;-73
2022/11/14 01:14:07;;;;;;;11.07;6.65;;;;;;;;;;5007483;28;20280;-72
2022/11/14 01:16:34;;;;;;;11.90;6.80;;;;;;;;;;5007553;28;20104;-75
2022/11/14 01:18:59;;;;;;;12.23;7.32;;;;;;;;;;5007674;28;20038;-74
2022/11/14 01:21:25;;;;;;;13.07;8.00;;;;;;;;;;5006698;28;20484;-73
2022/11/14 01:23:50;;;;;;;12.70;7.30;;;;;;;;;;5008589;28;20276;-73
2022/11/14 01:26:15;;;;;;;14.68;7.25;;;;;;;;;;5006845;28;20821;-66
2022/11/14 01:28:40;;;;;;;10.80;6.63;;;;;;;;;;5006998;28;20034;-72
2022/11/14 01:31:10;;;;;;;9.50;5.47;;;;;;;;;;5007168;28;20022;-75
2022/11/14 01:33:35;;;;;;;11.00;6.43;;;;;;;;;;5005739;28;20053;-73
2022/11/14 01:36:00;;;;;;;10.48;5.88;;;;;;;;;;5006504;28;20481;-73
2022/11/14 01:38:26;;;;;;;9.45;6.03;;;;;;;;;;5005157;28;20014;-73
2022/11/14 01:40:51;;;;;;;10.20;5.80;;;;;;;;;;5004102;28;20033;-71
2022/11/14 01:43:22;;;;;;;11.20;6.50;;;;;;;;;;5007110;28;20432;-73
2022/11/14 01:45:53;;;;;;;10.85;5.50;;;;;;;;;;5003809;28;20610;-70
2022/11/14 01:48:20;;;;;;;11.35;7.10;;;;;;;;;;5009265;28;20065;-73
2022/11/14 01:50:49;;;;;;;14.48;7.22;;;;;;;;;;5006354;28;20029;-73
2022/11/14 01:53:14;;;;;;;12.35;6.50;;;;;;;;;;5005891;28;20025;-72
2022/11/14 01:55:39;;;;;;;11.20;6.75;;;;;;;;;;5008614;28;20030;-72
2022/11/14 01:58:05;;;;;;;12.48;7.28;;;;;;;;;;5008167;28;20377;-74
2022/11/14 02:00:30;;;;;;;13.45;8.15;;;;;;;;;;5006918;28;20026;-73
2022/11/14 02:02:56;;;;;;;11.50;6.53;;;;;;;;;;5008240;28;20071;-70
2022/11/14 02:05:21;;;;;;;11.05;6.03;;;;;;;;;;5009765;28;20652;-73
2022/11/14 02:07:47;;;;;;;12.73;6.90;;;;;;;;;;5005425;28;20030;-73
2022/11/14 02:10:17;;;;;;;13.13;7.13;;;;;;;;;;5006433;28;20067;-72
2022/11/14 02:12:43;;;;;;;11.95;6.38;;;;;;;;;;5004655;28;20037;-72
2022/11/14 02:15:08;;;;;;;12.80;7.07;;;;;;;;;;5007139;28;20512;-73
2022/11/14 02:17:33;;;;;;;12.02;6.68;;;;;;;;;;5006627;28;20081;-75
2022/11/14 02:20:02;;;;;;;10.93;6.57;;;;;;;;;;5022009;28;20026;-69
2022/11/14 02:22:27;;;;;;;11.35;6.43;;;;;;;;;;5004794;28;20026;-71
2022/11/14 02:24:52;;;;;;;11.70;6.77;;;;;;;;;;5008118;28;20084;-72
2022/11/14 02:27:17;;;;;;;12.13;6.75;;;;;;;;;;5006319;28;20277;-72
2022/11/14 02:29:42;;;;;;;11.63;6.50;;;;;;;;;;5006633;28;20549;-71
2022/11/14 02:32:08;;;;;;;11.43;6.50;;;;;;;;;;5007186;28;20429;-71
2022/11/14 02:34:33;;;;;;;12.77;7.43;;;;;;;;;;5007519;28;20658;-71
2022/11/14 02:36:58;;;;;;;11.60;6.78;;;;;;;;;;5007042;28;20357;-73
2022/11/14 02:39:24;;;;;;;11.13;6.95;;;;;;;;;;5007121;28;20030;-72
2022/11/14 02:41:50;;;;;;;11.27;6.78;;;;;;;;;;5005982;28;20032;-72
2022/11/14 02:44:15;;;;;;;12.10;7.50;;;;;;;;;;5007868;28;20037;-73
2022/11/14 02:46:40;;;;;;;13.98;8.27;;;;;;;;;;5006545;28;20101;-72
2022/11/14 02:49:05;;;;;;;11.70;7.43;;;;;;;;;;5003707;28;20046;-74
2022/11/14 02:51:31;;;;;;;14.37;8.30;;;;;;;;;;5006843;28;20478;-75
2022/11/14 02:53:56;;;;;;;13.43;7.72;;;;;;;;;;5006272;28;20291;-72
2022/11/14 02:56:21;;;;;;;14.27;9.00;;;;;;;;;;5007775;28;20092;-73
2022/11/14 02:58:46;;;;;;;13.38;8.48;;;;;;;;;;5006275;28;20347;-68
2022/11/14 03:01:11;;;;;;;13.77;8.57;;;;;;;;;;5007958;28;20523;-73
2022/11/14 03:03:37;;;;;;;13.77;7.60;;;;;;;;;;5006682;28;20285;-73
2022/11/14 03:06:02;;;;;;;11.70;7.20;;;;;;;;;;5005442;28;20277;-72
2022/11/14 03:08:28;;;;;;;13.35;7.45;;;;;;;;;;5002314;28;20416;-73
2022/11/14 03:10:53;;;;;;;14.45;9.15;;;;;;;;;;5006839;28;20034;-72
2022/11/14 03:13:18;;;;;;;12.90;7.88;;;;;;;;;;5003654;28;20030;-73
2022/11/14 03:15:44;;;;;;;13.90;8.87;;;;;;;;;;5007718;28;20057;-72
2022/11/14 03:18:09;;;;;;;14.60;8.35;;;;;;;;;;5006110;28;20285;-72
2022/11/14 03:20:34;;;;;;;13.98;8.25;;;;;;;;;;5006144;28;20032;-72
2022/11/14 03:22:59;;;;;;;11.48;7.32;;;;;;;;;;5007572;28;20108;-71
2022/11/14 03:25:25;;;;;;;12.13;7.93;;;;;;;;;;5007228;28;20030;-72
2022/11/14 03:27:50;;;;;;;13.13;7.90;;;;;;;;;;5005785;28;20022;-71
2022/11/14 03:30:15;;;;;;;15.50;8.50;;;;;;;;;;5005928;28;20026;-75
2022/11/14 03:32:41;;;;;;;12.13;7.10;;;;;;;;;;5009062;28;20687;-71
2022/11/14 03:35:06;;;;;;;12.25;7.18;;;;;;;;;;5004748;28;20085;-72
2022/11/14 03:37:31;;;;;;;12.18;7.10;;;;;;;;;;5006358;28;20025;-67
2022/11/14 03:39:57;;;;;;;10.63;6.50;;;;;;;;;;5002467;28;20350;-69
2022/11/14 03:42:22;;;;;;;12.10;7.45;;;;;;;;;;5007883;28;20018;-68
2022/11/14 03:44:47;;;;;;;12.40;7.33;;;;;;;;;;5004035;28;20058;-67
2022/11/14 03:47:12;;;;;;;11.07;6.80;;;;;;;;;;5005928;28;20281;-67
2022/11/14 03:49:38;;;;;;;12.25;7.50;;;;;;;;;;5006606;28;20296;-68
2022/11/14 03:52:03;;;;;;;12.70;7.80;;;;;;;;;;5005879;28;20018;-72
2022/11/14 03:54:28;;;;;;;12.55;7.60;;;;;;;;;;5003595;28;20037;-74
2022/11/14 03:56:53;;;;;;;10.33;6.87;;;;;;;;;;5001058;28;20292;-73
2022/11/14 03:59:18;;;;;;;11.93;7.07;;;;;;;;;;5005350;28;22101;-74
2022/11/14 04:01:44;;;;;;;10.47;6.83;;;;;;;;;;5007795;28;20284;-72
2022/11/14 04:04:10;;;;;;;13.45;7.15;;;;;;;;;;5008890;28;20291;-74
2022/11/14 04:06:36;;;;;;;10.57;6.93;;;;;;;;;;4998790;28;20045;-73
2022/11/14 04:09:01;;;;;;;9.90;6.23;;;;;;;;;;5005084;28;20038;-76
2022/11/14 04:11:26;;;;;;;10.23;6.82;;;;;;;;;;5004780;28;20280;-69
2022/11/14 04:13:51;;;;;;;10.40;6.85;;;;;;;;;;5004623;28;20034;-75
2022/11/14 04:16:17;;;;;;;11.57;6.55;;;;;;;;;;4999750;28;20025;-76
2022/11/14 04:18:42;;;;;;;10.40;5.97;;;;;;;;;;5010011;28;20026;-75
2022/11/14 04:21:07;;;;;;;11.17;7.17;;;;;;;;;;5005399;28;20273;-75
2022/11/14 04:23:32;;;;;;;10.53;6.80;;;;;;;;;;5010594;28;20309;-74
2022/11/14 04:25:57;;;;;;;10.80;6.77;;;;;;;;;;5009152;28;20287;-74
2022/11/14 04:28:23;;;;;;;9.63;6.17;;;;;;;;;;5012344;28;20315;-67
2022/11/14 04:30:48;;;;;;;13.70;6.60;;;;;;;;;;5011122;28;20325;-67
2022/11/14 04:33:13;;;;;;;9.88;6.20;;;;;;;;;;5009089;28;20316;-67
2022/11/14 04:35:38;;;;;;;8.53;5.70;;;;;;;;;;5012465;28;20044;-68
2022/11/14 04:38:04;;;;;;;11.50;6.40;;;;;;;;;;5007539;28;20356;-67
2022/11/14 04:40:29;;;;;;;12.30;6.45;;;;;;;;;;5009766;28;20041;-67
2022/11/14 04:42:54;;;;;;;11.55;6.97;;;;;;;;;;5011208;28;20464;-67
2022/11/14 04:45:19;;;;;;;10.93;6.57;;;;;;;;;;5014083;28;20028;-66
2022/11/14 04:47:44;;;;;;;10.73;6.70;;;;;;;;;;5013184;28;20117;-75
2022/11/14 04:50:10;;;;;;;10.03;6.80;;;;;;;;;;5012910;28;20376;-73
2022/11/14 04:52:35;;;;;;;9.40;5.88;;;;;;;;;;5000139;28;20355;-76
2022/11/14 04:55:00;;;;;;;12.30;6.70;;;;;;;;;;5005298;28;20104;-75
2022/11/14 04:57:25;;;;;;;8.77;5.95;;;;;;;;;;5007139;28;20029;-75
2022/11/14 04:59:51;;;;;;;9.77;5.80;;;;;;;;;;5011709;28;20391;-76
2022/11/14 05:02:16;;;;;;;10.30;6.43;;;;;;;;;;5013356;28;20033;-78
2022/11/14 05:04:43;;;;;;;10.87;6.30;;;;;;;;;;5010434;28;20032;-73
2022/11/14 05:07:08;;;;;;;9.43;5.50;;;;;;;;;;5005661;28;20280;-72
2022/11/14 05:09:35;;;;;;;10.15;5.97;;;;;;;;;;5009033;28;20030;-71
2022/11/14 05:12:00;;;;;;;10.30;6.15;;;;;;;;;;5010899;28;20033;-72
2022/11/14 05:14:26;;;;;;;12.43;6.07;;;;;;;;;;5009806;28;20034;-71
2022/11/14 05:16:51;;;;;;;10.17;5.67;;;;;;;;;;5006384;28;20022;-71
2022/11/14 05:19:16;;;;;;;10.30;6.15;;;;;;;;;;5008865;28;20281;-72
2022/11/14 05:21:41;;;;;;;12.23;6.63;;;;;;;;;;5006580;28;20489;-71
2022/11/14 05:24:06;;;;;;;11.23;6.73;;;;;;;;;;5010260;28;20308;-74
2022/11/14 05:26:32;;;;;;;10.70;6.55;;;;;;;;;;5009484;28;20319;-67
2022/11/14 05:28:57;;;;;;;12.13;7.37;;;;;;;;;;5002939;28;20400;-72
2022/11/14 05:31:22;;;;;;;10.02;6.38;;;;;;;;;;5006463;28;20794;-72
2022/11/14 05:33:48;;;;;;;10.07;6.30;;;;;;;;;;4999702;28;20034;-72
2022/11/14 05:36:14;;;;;;;10.55;6.00;;;;;;;;;;5003891;28;20280;-71
2022/11/14 05:38:39;;;;;;;10.88;6.30;;;;;;;;;;5002783;28;20050;-72
2022/11/14 05:41:05;;;;;;;9.57;5.45;;;;;;;;;;5005011;28;20029;-71
2022/11/14 05:43:30;;;;;;;10.57;5.85;;;;;;;;;;5003564;28;20014;-72
2022/11/14 05:46:03;;;;;;;11.47;6.33;;;;;;;;;;5002848;28;20085;-73
2022/11/14 05:48:29;;;;;;;11.18;6.22;;;;;;;;;;5004116;28;20292;-74
2022/11/14 05:50:55;;;;;;;11.30;5.90;;;;;;;;;;5000515;28;20014;-73
2022/11/14 05:53:20;;;;;;;9.30;5.72;;;;;;;;;;5003112;28;20049;-75
2022/11/14 05:55:45;;;;;;;11.20;6.63;;;;;;;;;;5001649;28;20481;-73
2022/11/14 05:58:10;;;;;;;9.83;6.10;;;;;;;;;;5007382;28;20283;-73
2022/11/14 06:00:35;;;;;;;9.27;5.05;;;;;;;;;;5002271;28;20285;-68
2022/11/14 06:03:01;;;;;;;9.02;5.63;;;;;;;;;;5001485;28;20309;-72
2022/11/14 06:05:26;;;;;;;10.88;7.28;;;;;;;;;;5001109;28;20056;-68
2022/11/14 06:07:55;;;;;;;9.57;5.50;;;;;;;;;;5004242;28;20038;-69
2022/11/14 06:10:21;;;;;;;11.00;6.10;;;;;;;;;;5002196;28;20315;-67
2022/11/14 06:12:46;;;;;;;10.48;6.40;;;;;;;;;;5006999;28;20034;-68
2022/11/14 06:15:11;;;;;;;11.50;6.53;;;;;;;;;;5007881;28;20177;-67
2022/11/14 06:17:37;;;;;;;11.20;6.30;;;;;;;;;;5012161;28;20034;-67
2022/11/14 06:20:02;;;;;;;10.53;5.87;;;;;;;;;;5011177;28;20048;-73
2022/11/14 06:22:27;;;;;;;10.07;6.35;;;;;;;;;;5011487;28;20269;-67
2022/11/14 06:24:52;;;;;;;11.50;6.70;;;;;;;;;;5011927;28;20022;-67
2022/11/14 06:27:17;;;;;;;11.73;6.07;;;;;;;;;;5010921;28;20955;-69
2022/11/14 06:29:43;;;;;;;11.10;6.40;;;;;;;;;;5012319;28;20729;-67
2022/11/14 06:32:08;;;;;;;12.27;6.30;;;;;;;;;;5011093;28;20284;-68
2022/11/14 06:34:33;;;;;;;11.10;6.90;;;;;;;;;;5007475;28;20287;-67
2022/11/14 06:36:58;;;;;;;10.90;6.30;;;;;;;;;;5007655;28;20271;-67
2022/11/14 06:39:23;;;;;;;12.47;6.10;;;;;;;;;;5008183;28;20273;-74
2022/11/14 06:41:49;;;;;;;11.53;6.03;;;;;;;;;;5004093;28;20273;-73
2022/11/14 06:44:14;;;;;;;9.10;5.63;;;;;;;;;;5000670;28;20273;-73
2022/11/14 06:46:39;;;;;;;10.20;6.30;;;;;;;;;;5009143;28;20810;-71
2022/11/14 06:49:04;;;;;;;9.10;5.23;;;;;;;;;;5007942;28;20334;-72
2022/11/14 06:51:30;;;;;;;10.57;6.47;;;;;;;;;;5007123;28;20316;-72
2022/11/14 06:53:55;;;;;;;12.30;6.33;;;;;;;;;;5004060;28;20026;-73
2022/11/14 06:56:20;;;;;;;9.57;6.03;;;;;;;;;;5001034;28;20280;-69
2022/11/14 06:58:47;;;;;;;10.38;6.03;;;;;;;;;;5008251;28;20041;-69
2022/11/14 07:01:12;;;;;;;9.95;5.90;;;;;;;;;;5007940;28;20036;-73
2022/11/14 07:03:38;;;;;;;9.77;5.82;;;;;;;;;;5001037;28;20038;-76
2022/11/14 07:06:03;;;;;;;11.40;6.85;;;;;;;;;;5010061;28;20538;-74
2022/11/14 07:08:29;;;;;;;12.68;6.40;;;;;;;;;;5008366;28;20037;-75
2022/11/14 07:10:59;;;;;;;13.15;7.03;;;;;;;;;;5007791;28;20041;-74
2022/11/14 07:13:25;;;;;;;11.85;5.72;;;;;;;;;;5005330;28;20045;-75
2022/11/14 07:15:50;;;;;;;11.47;5.77;;;;;;;;;;5007151;28;20041;-71
2022/11/14 07:18:16;;;;;;;11.90;6.25;;;;;;;;;;5005625;28;20269;-70
2022/11/14 07:20:41;;;;;;;9.40;5.35;;;;;;;;;;5003218;28;20524;-69
2022/11/14 07:23:06;;;;;;;11.73;6.43;;;;;;;;;;5007981;28;20121;-70
2022/11/14 07:25:31;;;;;;;13.47;6.40;;;;;;;;;;5009556;28;20285;-68
2022/11/14 07:27:57;;;;;;;12.50;6.43;;;;;;;;;;5010839;28;20272;-70
2022/11/14 07:30:22;;;;;;;11.93;6.40;;;;;;;;;;5005080;28;20030;-70
2022/11/14 07:32:53;;;;;;;8.75;5.65;;;;;;;;;;5010397;28;20037;-73
2022/11/14 07:35:18;;;;;;;12.38;5.50;;;;;;;;;;5006611;28;20041;-69
2022/11/14 07:37:45;;;;;;;21.60;7.15;;;;;;;;;;5008941;28;20088;-72
2022/11/14 07:40:10;;;;;;;17.10;8.03;;;;;;;;;;5008209;28;20442;-80
2022/11/14 07:42:35;;;;;;;13.18;5.45;;;;;;;;;;5009228;28;20788;-78
2022/11/14 07:45:00;;;;;;;10.00;6.00;;;;;;;;;;5006505;28;20046;-76
2022/11/14 07:47:26;;;;;;;13.77;6.80;;;;;;;;;;5009967;28;20036;-78
2022/11/14 07:49:51;;;;;;;11.45;6.50;;;;;;;;;;5004507;28;20295;-73
2022/11/14 07:52:16;;;;;;;10.97;6.40;;;;;;;;;;5010398;28;20461;-71
2022/11/14 07:54:41;;;;;;;12.87;6.67;;;;;;;;;;5009451;28;20614;-68
2022/11/14 07:57:07;;;;;;;11.10;5.90;;;;;;;;;;5013677;28;20624;-70
2022/11/14 07:59:32;;;;;;;11.48;6.65;;;;;;;;;;5012798;28;20760;-69
2022/11/14 08:01:58;;;;;;;11.70;6.68;;;;;;;;;;5014106;28;20524;-69
2022/11/14 08:04:23;;;;;;;11.13;6.40;;;;;;;;;;5012403;28;20107;-69
2022/11/14 08:06:48;;;;;;;13.27;7.70;;;;;;;;;;5012069;28;20276;-71
2022/11/14 08:09:13;;;;;;;11.60;6.53;;;;;;;;;;5011848;28;20281;-73
2022/11/14 08:11:48;;;;;;;9.15;5.45;;;;;;;;;;5008454;28;20291;-77
2022/11/14 08:14:13;;;;;;;12.18;6.00;;;;;;;;;;5010754;28;20129;-72
2022/11/14 08:16:38;;;;;;;10.77;6.28;;;;;;;;;;5012107;28;20120;-71
2022/11/14 08:19:04;;;;;;;18.38;6.60;;;;;;;;;;5010767;28;20483;-72
2022/11/14 08:21:29;;;;;;;17.27;6.47;;;;;;;;;;5011855;28;20091;-71
2022/11/14 08:23:55;;;;;;;14.40;5.88;;;;;;;;;;5012281;28;20037;-68
2022/11/14 08:26:20;;;;;;;11.05;6.47;;;;;;;;;;5012786;28;20084;-70
2022/11/14 08:28:45;;;;;;;10.15;6.20;;;;;;;;;;5012762;28;20083;-71
2022/11/14 08:31:12;;;;;;;12.02;6.22;;;;;;;;;;5004639;28;20061;-74
2022/11/14 08:33:37;;;;;;;14.63;6.07;;;;;;;;;;5011031;28;20034;-74
2022/11/14 08:36:05;;;;;;;13.02;7.22;;;;;;;;;;5010983;28;20022;-75
2022/11/14 08:38:30;;;;;;;13.50;7.15;;;;;;;;;;5010257;28;20057;-71
2022/11/14 08:40:59;;;;;;;10.27;6.35;;;;;;;;;;5011663;28;20073;-71
2022/11/14 08:43:25;;;;;;;13.65;6.97;;;;;;;;;;5009592;28;20029;-73
2022/11/14 08:45:50;;;;;;;14.18;7.20;;;;;;;;;;5005873;28;20026;-76
2022/11/14 08:48:15;;;;;;;12.98;6.80;;;;;;;;;;5010543;28;20022;-72
2022/11/14 08:50:41;;;;;;;10.90;6.68;;;;;;;;;;5011791;28;20444;-78
2022/11/14 08:53:06;;;;;;;11.45;6.55;;;;;;;;;;5012035;28;20034;-80
2022/11/14 08:55:31;;;;;;;10.63;6.30;;;;;;;;;;5011903;28;20036;-79
2022/11/14 08:57:57;;;;;;;14.93;6.97;;;;;;;;;;5009538;28;20273;-76
2022/11/14 09:00:22;;;;;;;10.73;6.47;;;;;;;;;;5011599;28;20038;-76
2022/11/14 09:02:47;;;;;;;16.83;7.75;;;;;;;;;;5010111;28;20030;-77
2022/11/14 09:05:12;;;;;;;12.57;7.13;;;;;;;;;;5008788;28;20041;-71
2022/11/14 09:07:38;;;;;;;12.93;7.30;;;;;;;;;;5009095;28;20041;-74
2022/11/14 09:10:03;;;;;;;12.60;5.43;;;;;;;;;;5009055;28;20478;-73
2022/11/14 09:12:29;;;;;;;13.80;6.93;;;;;;;;;;5007531;28;20129;-72
2022/11/14 09:14:54;;;;;;;11.70;6.40;;;;;;;;;;5011822;28;20076;-71
2022/11/14 09:17:19;;;;;;;12.27;6.05;;;;;;;;;;5010129;28;20030;-74
2022/11/14 09:19:44;;;;;;;10.13;6.07;;;;;;;;;;5012065;28;20056;-72
2022/11/14 09:22:09;;;;;;;15.95;6.70;;;;;;;;;;5012568;28;20280;-74
2022/11/14 09:24:35;;;;;;;45.20;11.33;;;;;;;;;;5012372;28;20037;-72
2022/11/14 09:27:00;;;;;;;42.77;11.03;;;;;;;;;;5006267;28;20260;-73
2022/11/14 09:29:25;;;;;;;33.73;10.10;;;;;;;;;;5008131;28;20320;-72
2022/11/14 09:31:51;;;;;;;22.03;7.00;;;;;;;;;;5008106;28;20295;-71
2022/11/14 09:34:16;;;;;;;23.63;6.75;;;;;;;;;;5008576;28;20277;-69
2022/11/14 09:36:41;;;;;;;24.15;8.45;;;;;;;;;;5011440;28;20088;-71
2022/11/14 09:39:06;;;;;;;15.82;5.72;;;;;;;;;;5008873;28;20030;-73
2022/11/14 09:41:41;;;;;;;14.63;5.97;;;;;;;;;;5011664;28;20117;-68
2022/11/14 09:44:21;;;;;;;16.85;6.45;;;;;;;;;;5002788;28;20336;-78
2022/11/14 09:46:48;;;;;;;17.33;7.13;;;;;;;;;;5010689;28;20026;-82
2022/11/14 09:49:22;;;;;;;18.92;7.32;;;;;;;;;;5005275;28;20038;-76
2022/11/14 09:51:49;;;;;;;56.00;12.80;;;;;;;;;;5010340;28;20026;-75
2022/11/14 09:54:26;;;;;;;46.33;10.80;;;;;;;;;;5011724;28;20026;-79
2022/11/14 09:56:51;;;;;;;30.75;10.43;;;;;;;;;;5010492;28;20485;-79
2022/11/14 09:59:17;;;;;;;23.20;7.18;;;;;;;;;;5006884;28;20045;-73
2022/11/14 10:01:48;;;;;;;20.23;6.57;;;;;;;;;;5009595;28;20083;-72
2022/11/14 10:04:13;;;;;;;14.95;5.47;;;;;;;;;;5005967;28;20030;-69
2022/11/14 10:06:45;;;;;;;10.30;5.77;;;;;;;;;;5010619;28;20037;-69
2022/11/14 10:09:29;;;;;;;12.32;5.35;;;;;;;;;;5009695;28;20280;-70
2022/11/14 10:12:01;;;;;;;11.77;5.57;;;;;;;;;;5011264;28;20108;-68
2022/11/14 10:14:30;;;;;;;12.00;5.50;;;;;;;;;;5021456;28;20105;-69
2022/11/14 10:17:21;;;;;;;10.77;5.15;;;;;;;;;;5001969;28;20182;-69
2022/11/14 10:19:56;;;;;;;11.95;4.88;;;;;;;;;;5008592;28;20030;-71
2022/11/14 10:22:21;;;;;;;12.18;4.93;;;;;;;;;;5004437;28;20034;-70
2022/11/14 10:25:05;;;;;;;18.40;5.53;;;;;;;;;;5010544;28;20451;-73
2022/11/14 10:27:49;;;;;;;12.55;5.28;;;;;;;;;;5007905;28;20369;-71
2022/11/14 10:30:17;;;;;;;10.43;5.13;;;;;;;;;;5006663;28;20044;-72
2022/11/14 10:32:55;;;;;;;5.72;3.45;;;;;;;;;;5005418;28;20029;-74
2022/11/14 10:35:22;;;;;;;6.35;3.75;;;;;;;;;;5006726;28;20112;-73
2022/11/14 10:38:03;;;;;;;5.65;3.30;;;;;;;;;;5009086;28;20034;-70
2022/11/14 10:40:33;;;;;;;7.35;3.67;;;;;;;;;;5010077;28;20306;-69
2022/11/14 10:43:05;;;;;;;5.38;3.53;;;;;;;;;;5017219;28;20504;-69
2022/11/14 10:45:42;;;;;;;7.20;3.80;;;;;;;;;;5011458;28;20469;-69
2022/11/14 10:48:15;;;;;;;6.30;3.40;;;;;;;;;;5005046;28;20045;-73
2022/11/14 10:50:50;;;;;;;8.77;3.60;;;;;;;;;;5009131;28;20034;-76
2022/11/14 10:53:34;;;;;;;7.63;3.72;;;;;;;;;;5013380;28;20025;-74
2022/11/14 10:55:59;;;;;;;9.02;3.75;;;;;;;;;;5008441;28;20108;-75
2022/11/14 10:58:24;;;;;;;9.43;3.95;;;;;;;;;;5006917;28;20172;-73
2022/11/14 11:00:50;;;;;;;11.43;3.80;;;;;;;;;;5007457;28;20037;-73
2022/11/14 11:03:15;;;;;;;8.88;4.07;;;;;;;;;;5008554;28;20280;-78
2022/11/14 11:05:46;;;;;;;6.32;3.30;;;;;;;;;;5008823;28;20040;-78
2022/11/14 11:13:50;;;;;;;7.75;3.13;;;;;;;;;;5008451;28;20057;-80
2022/11/14 11:16:18;;;;;;;6.38;3.47;;;;;;;;;;5003724;28;20022;-70
2022/11/14 11:18:43;;;;;;;6.13;3.25;;;;;;;;;;5010763;28;20105;-77
2022/11/14 11:21:13;;;;;;;4.97;3.47;;;;;;;;;;5008285;28;20101;-78
2022/11/14 11:23:49;;;;;;;5.70;3.15;;;;;;;;;;4997710;28;20125;-78
2022/11/14 11:26:19;;;;;;;7.43;3.83;;;;;;;;;;5001998;28;20059;-80
2022/11/14 11:28:59;;;;;;;5.82;2.92;;;;;;;;;;5006184;28;20030;-80
2022/11/14 11:31:24;;;;;;;8.20;3.80;;;;;;;;;;5021370;28;20026;-78
2022/11/14 11:33:49;;;;;;;5.60;3.53;;;;;;;;;;5009850;28;20373;-72
2022/11/14 11:36:19;;;;;;;7.40;2.92;;;;;;;;;;5009857;28;20347;-69
2022/11/14 11:38:44;;;;;;;5.28;2.60;;;;;;;;;;5007194;28;20029;-69
2022/11/14 11:41:30;;;;;;;4.97;3.17;;;;;;;;;;5009998;28;20440;-70
2022/11/14 11:43:59;;;;;;;5.53;2.78;;;;;;;;;;5001682;28;20111;-68
2022/11/14 11:46:39;;;;;;;5.80;2.60;;;;;;;;;;5009769;28;20025;-69
2022/11/14 11:49:09;;;;;;;3.88;2.85;;;;;;;;;;5005946;28;20037;-68
2022/11/14 11:51:38;;;;;;;4.60;2.45;;;;;;;;;;5005042;28;20058;-73
2022/11/14 11:54:09;;;;;;;4.37;2.47;;;;;;;;;;5006056;28;20030;-70
2022/11/14 11:56:36;;;;;;;4.57;2.67;;;;;;;;;;5008101;28;20030;-68
2022/11/14 11:59:26;;;;;;;3.80;2.17;;;;;;;;;;5008701;28;20034;-68
2022/11/14 12:01:52;;;;;;;3.38;2.33;;;;;;;;;;5008062;28;20477;-71
2022/11/14 12:04:17;;;;;;;2.92;1.75;;;;;;;;;;5007139;28;20145;-71
2022/11/14 12:06:49;;;;;;;4.63;2.03;;;;;;;;;;5008232;28;20377;-68
2022/11/14 12:09:23;;;;;;;3.33;1.70;;;;;;;;;;5006749;28;20349;-69
2022/11/14 12:11:59;;;;;;;3.88;2.10;;;;;;;;;;5007598;28;20029;-70
2022/11/14 12:14:24;;;;;;;3.28;2.15;;;;;;;;;;5006085;28;20065;-69
2022/11/14 12:16:49;;;;;;;4.00;2.20;;;;;;;;;;5006928;28;20423;-70
2022/11/14 12:19:18;;;;;;;3.10;1.90;;;;;;;;;;5005990;28;20030;-70
2022/11/14 12:21:58;;;;;;;3.55;2.22;;;;;;;;;;5008596;28;20356;-69
2022/11/14 12:24:33;;;;;;;6.60;2.90;;;;;;;;;;5008457;28;20038;-69
2022/11/14 12:27:10;;;;;;;4.03;2.30;;;;;;;;;;5006142;28;20026;-80
2022/11/14 12:30:02;;;;;;;4.90;2.22;;;;;;;;;;5006692;28;20132;-70
2022/11/14 12:32:29;;;;;;;3.20;2.25;;;;;;;;;;5002118;28;20095;-78
2022/11/14 12:34:55;;;;;;;2.92;2.00;;;;;;;;;;5007363;28;20075;-79
2022/11/14 12:37:26;;;;;;;6.78;2.60;;;;;;;;;;5006690;28;20031;-80
2022/11/14 12:39:57;;;;;;;3.00;2.20;;;;;;;;;;5007904;28;20087;-81
2022/11/14 12:42:22;;;;;;;4.97;2.35;;;;;;;;;;5010350;28;20045;-76
2022/11/14 12:44:48;;;;;;;3.55;2.15;;;;;;;;;;5013067;28;20034;-77
2022/11/14 12:47:15;;;;;;;4.85;2.05;;;;;;;;;;5011549;28;20541;-70
2022/11/14 12:49:46;;;;;;;5.07;2.00;;;;;;;;;;5009289;28;20388;-69
2022/11/14 12:52:30;;;;;;;4.97;2.10;;;;;;;;;;5005846;28;20083;-70
2022/11/14 12:54:55;;;;;;;5.13;1.95;;;;;;;;;;5012206;28;20118;-69
2022/11/14 12:57:46;;;;;;;2.67;1.80;;;;;;;;;;5010220;28;20104;-69
2022/11/14 13:00:11;;;;;;;8.23;2.00;;;;;;;;;;5011095;28;20729;-69
2022/11/14 13:02:49;;;;;;;6.10;2.53;;;;;;;;;;5007947;28;20366;-68
2022/11/14 13:05:14;;;;;;;8.20;2.58;;;;;;;;;;5012221;28;20036;-69
2022/11/14 13:07:57;;;;;;;4.47;1.87;;;;;;;;;;5011099;28;20034;-80
2022/11/14 13:10:26;;;;;;;4.45;1.90;;;;;;;;;;5009670;28;20281;-77
2022/11/14 13:21:44;;;;;;;2.97;1.90;;;;;;;;;;5007128;28;20025;-78
2022/11/14 13:24:10;;;;;;;3.72;2.47;;;;;;;;;;5010879;28;20056;-70
2022/11/14 13:26:36;;;;;;;4.65;2.13;;;;;;;;;;5009884;28;20038;-68
2022/11/14 13:29:01;;;;;;;3.75;2.10;;;;;;;;;;5002910;28;20124;-69
2022/11/14 13:31:36;;;;;;;3.70;1.67;;;;;;;;;;5007691;28;20025;-70
2022/11/14 13:34:21;;;;;;;2.70;1.83;;;;;;;;;;5008310;28;20343;-69
2022/11/14 13:36:52;;;;;;;4.38;2.05;;;;;;;;;;5006501;28;20030;-69
2022/11/14 13:39:22;;;;;;;5.28;2.00;;;;;;;;;;5005979;28;20041;-69
2022/11/14 13:42:06;;;;;;;3.08;2.05;;;;;;;;;;5010700;28;20033;-70
2022/11/14 13:44:31;;;;;;;4.32;2.80;;;;;;;;;;5010880;28;20025;-69
2022/11/14 13:47:05;;;;;;;4.67;2.23;;;;;;;;;;5011286;28;20397;-69
2022/11/14 13:49:47;;;;;;;4.68;2.70;;;;;;;;;;5006689;28;20297;-69
2022/11/14 13:52:13;;;;;;;5.50;2.75;;;;;;;;;;5011386;28;20037;-68
2022/11/14 13:54:44;;;;;;;8.80;2.90;;;;;;;;;;5009140;28;20026;-69
2022/11/14 13:57:12;;;;;;;6.43;2.83;;;;;;;;;;5011132;28;20369;-69
2022/11/14 13:59:45;;;;;;;3.88;2.53;;;;;;;;;;5007714;28;20394;-78
2022/11/14 14:02:10;;;;;;;5.50;2.95;;;;;;;;;;5008840;28;20116;-70
2022/11/14 14:04:54;;;;;;;5.07;2.20;;;;;;;;;;5005605;28;20121;-71
2022/11/14 14:07:22;;;;;;;5.35;2.85;;;;;;;;;;5005312;28;20034;-72
2022/11/14 14:10:00;;;;;;;12.57;2.80;;;;;;;;;;5004597;28;20030;-69
2022/11/14 14:12:28;;;;;;;6.13;2.53;;;;;;;;;;5010190;28;20481;-70
2022/11/14 14:14:53;;;;;;;6.72;2.50;;;;;;;;;;5003490;28;20034;-70
2022/11/14 14:17:23;;;;;;;3.67;2.20;;;;;;;;;;5010094;28;20037;-76
2022/11/14 14:19:48;;;;;;;;;;;;;;;;;;5009364;28;20422;-69
2022/11/14 14:22:26;;;;;;;10.80;3.03;;;;;;;;;;5017784;28;20378;-76
2022/11/14 14:24:51;;;;;;;13.38;2.90;;;;;;;;;;5008202;28;20048;-77
2022/11/14 14:27:26;;;;;;;7.17;3.20;;;;;;;;;;5009236;28;20025;-75
2022/11/14 14:29:52;;;;;;;7.80;2.92;;;;;;;;;;5005665;28;21084;-74
2022/11/14 14:32:18;;;;;;;7.50;3.40;;;;;;;;;;5010922;28;20026;-74
2022/11/14 14:34:43;;;;;;;8.38;3.08;;;;;;;;;;5010070;28;20037;-79
2022/11/14 14:37:21;;;;;;;7.38;2.67;;;;;;;;;;5011340;28;20030;-67
2022/11/14 14:40:00;;;;;;;8.07;2.90;;;;;;;;;;5008305;28;20588;-70
2022/11/14 14:42:29;;;;;;;6.70;2.77;;;;;;;;;;5003549;28;20034;-71
2022/11/14 14:44:54;;;;;;;5.13;3.08;;;;;;;;;;5007227;28;20030;-70
2022/11/14 14:47:38;;;;;;;7.32;2.90;;;;;;;;;;5010999;28;20415;-75
2022/11/14 14:50:08;;;;;;;4.65;2.45;;;;;;;;;;5002440;28;20045;-72